createdAt,value
2023-05-17T00:00:33.174Z,0.90
2023-05-17T00:03:01.290Z,0.90
2023-05-17T00:05:29.743Z,0.63
2023-05-17T00:07:58.003Z,0.60
2023-05-17T00:10:26.121Z,0.70
2023-05-17T00:12:54.178Z,0.80
2023-05-17T00:15:23.612Z,0.85
2023-05-17T00:17:52.042Z,0.50
2023-05-17T00:20:20.341Z,0.80
2023-05-17T00:22:48.673Z,1.42
2023-05-17T00:25:16.680Z,0.88
2023-05-17T00:27:44.832Z,0.52
2023-05-17T00:30:13.139Z,0.70
2023-05-17T00:32:42.525Z,1.05
2023-05-17T00:35:10.709Z,1.00
2023-05-17T00:37:39.130Z,0.80
2023-05-17T00:40:08.368Z,1.98
2023-05-17T00:42:36.537Z,0.80
2023-05-17T00:45:05.159Z,1.00
2023-05-17T00:47:33.405Z,0.75
2023-05-17T00:50:03.011Z,1.33
2023-05-17T00:52:31.128Z,0.80
2023-05-17T00:54:59.733Z,1.10
2023-05-17T00:57:29.202Z,0.77
2023-05-17T00:59:57.753Z,0.93
2023-05-17T01:02:26.032Z,0.60
2023-05-17T01:04:54.281Z,0.68
2023-05-17T01:07:23.694Z,1.10
2023-05-17T01:09:51.916Z,1.00
2023-05-17T01:12:33.635Z,0.90
2023-05-17T01:15:13.057Z,0.73
2023-05-17T01:17:51.588Z,0.70
2023-05-17T01:20:26.949Z,0.95
2023-05-17T01:23:12.044Z,0.63
2023-05-17T01:25:53.204Z,0.95
2023-05-17T01:28:26.039Z,0.90
2023-05-17T01:30:58.045Z,1.10
2023-05-17T01:33:26.988Z,0.75
2023-05-17T01:35:55.116Z,0.60
2023-05-17T01:38:23.403Z,1.13
2023-05-17T01:40:58.056Z,0.90
2023-05-17T01:43:32.811Z,1.00
2023-05-17T01:46:17.067Z,0.82
2023-05-17T01:48:53.750Z,0.93
2023-05-17T01:51:28.162Z,0.70
2023-05-17T01:54:01.227Z,1.00
2023-05-17T01:56:34.983Z,0.70
2023-05-17T01:59:07.640Z,0.75
2023-05-17T02:01:36.957Z,0.88
2023-05-17T02:04:05.975Z,0.60
2023-05-17T02:06:34.266Z,1.02
2023-05-17T02:09:03.152Z,0.82
2023-05-17T02:11:32.357Z,0.60
2023-05-17T02:14:00.479Z,0.68
2023-05-17T02:16:29.903Z,0.98
2023-05-17T02:18:58.156Z,0.60
2023-05-17T02:21:26.361Z,1.08
2023-05-17T02:23:54.410Z,0.93
2023-05-17T02:26:22.435Z,1.05
2023-05-17T02:28:50.472Z,0.95
2023-05-17T02:31:18.592Z,0.73
2023-05-17T02:33:48.305Z,1.10
2023-05-17T02:36:17.250Z,1.10
2023-05-17T02:38:46.928Z,0.50
2023-05-17T02:41:15.172Z,0.77
2023-05-17T02:43:43.156Z,1.13
2023-05-17T02:46:11.282Z,1.02
2023-05-17T02:48:39.575Z,0.77
2023-05-17T02:51:09.196Z,1.08
2023-05-17T02:53:37.354Z,0.65
2023-05-17T02:56:06.053Z,1.02
2023-05-17T02:58:34.538Z,1.17
2023-05-17T03:01:02.777Z,0.90
2023-05-17T03:03:33.503Z,0.80
2023-05-17T03:06:03.292Z,0.75
2023-05-17T03:08:32.740Z,0.73
2023-05-17T03:11:02.229Z,1.20
2023-05-17T03:13:30.401Z,1.30
2023-05-17T03:15:59.413Z,1.50
2023-05-17T03:18:28.138Z,1.15
2023-05-17T03:20:56.392Z,0.65
2023-05-17T03:23:24.573Z,1.33
2023-05-17T03:26:05.304Z,1.08
2023-05-17T03:28:38.674Z,1.27
2023-05-17T03:31:06.950Z,0.80
2023-05-17T03:33:36.132Z,0.80
2023-05-17T03:36:05.264Z,1.17
2023-05-17T03:38:33.857Z,1.40
2023-05-17T03:41:02.080Z,0.77
2023-05-17T03:43:31.525Z,1.30
2023-05-17T03:46:01.146Z,1.15
2023-05-17T03:48:30.566Z,1.45
2023-05-17T03:50:59.261Z,1.00
2023-05-17T03:53:28.650Z,1.05
2023-05-17T03:55:56.707Z,1.55
2023-05-17T03:58:24.768Z,1.50
2023-05-17T04:00:54.559Z,1.17
2023-05-17T04:03:22.644Z,1.40
2023-05-17T04:05:50.912Z,1.42
2023-05-17T04:08:19.054Z,0.93
2023-05-17T04:10:47.179Z,0.85
2023-05-17T04:13:15.211Z,0.88
2023-05-17T04:15:43.336Z,1.25
2023-05-17T04:18:12.804Z,1.20
2023-05-17T04:20:40.954Z,1.08
2023-05-17T04:23:09.557Z,0.95
2023-05-17T04:25:37.906Z,1.20
2023-05-17T04:28:06.053Z,1.05
2023-05-17T04:30:34.268Z,1.38
2023-05-17T04:33:02.720Z,1.65
2023-05-17T04:35:32.206Z,0.77
2023-05-17T04:38:00.752Z,1.20
2023-05-17T04:40:28.812Z,1.35
2023-05-17T04:42:57.039Z,1.80
2023-05-17T04:45:26.309Z,1.30
2023-05-17T04:47:54.593Z,1.25
2023-05-17T04:50:23.132Z,0.90
2023-05-17T04:52:53.518Z,1.10
2023-05-17T04:55:21.884Z,1.15
2023-05-17T04:57:50.174Z,1.73
2023-05-17T05:00:20.971Z,2.05
2023-05-17T05:02:54.851Z,2.05
2023-05-17T05:05:25.069Z,1.63
2023-05-17T05:07:54.654Z,3.35
2023-05-17T05:10:23.208Z,3.85
2023-05-17T05:12:51.314Z,3.67
2023-05-17T05:15:19.977Z,2.28
2023-05-17T05:17:54.971Z,3.65
2023-05-17T05:20:24.146Z,2.35
2023-05-17T05:22:54.701Z,2.72
2023-05-17T05:25:22.776Z,3.50
2023-05-17T05:27:51.242Z,2.90
2023-05-17T05:30:22.418Z,3.33
2023-05-17T05:32:53.569Z,2.33
2023-05-17T05:35:26.436Z,3.50
2023-05-17T05:37:56.508Z,4.10
2023-05-17T05:40:24.983Z,4.53
2023-05-17T05:42:53.414Z,3.33
2023-05-17T05:45:22.442Z,2.97
2023-05-17T05:47:52.197Z,3.03
2023-05-17T05:50:20.755Z,4.67
2023-05-17T05:52:49.836Z,4.40
2023-05-17T05:55:19.310Z,4.13
2023-05-17T05:57:47.380Z,4.40
2023-05-17T06:00:17.964Z,5.00
2023-05-17T06:02:46.406Z,4.50
2023-05-17T06:05:14.532Z,4.50
2023-05-17T06:07:42.591Z,4.37
2023-05-17T06:10:11.584Z,5.03
2023-05-17T06:12:41.140Z,4.87
2023-05-17T06:15:10.324Z,5.07
2023-05-17T06:17:38.675Z,5.07
2023-05-17T06:20:07.543Z,5.83
2023-05-17T06:22:35.632Z,5.30
2023-05-17T06:25:03.870Z,3.20
2023-05-17T06:27:33.026Z,4.53
2023-05-17T06:30:06.333Z,3.30
2023-05-17T06:32:35.713Z,3.40
2023-05-17T06:35:04.055Z,3.43
2023-05-17T06:37:32.153Z,5.93
2023-05-17T06:40:14.918Z,4.77
2023-05-17T06:42:44.000Z,3.77
2023-05-17T06:45:15.631Z,2.40
2023-05-17T06:47:43.782Z,3.60
2023-05-17T06:50:12.232Z,3.07
2023-05-17T06:52:40.920Z,3.20
2023-05-17T06:55:09.760Z,3.20
2023-05-17T06:57:37.873Z,2.73
2023-05-17T07:00:10.518Z,2.60
2023-05-17T07:02:39.991Z,3.17
2023-05-17T07:05:08.841Z,2.17
2023-05-17T07:07:37.024Z,2.80
2023-05-17T07:10:05.693Z,3.53
2023-05-17T07:12:34.201Z,3.80
2023-05-17T07:15:02.299Z,3.63
2023-05-17T07:17:30.678Z,3.17
2023-05-17T07:20:00.303Z,2.93
2023-05-17T07:22:28.393Z,4.17
2023-05-17T07:24:56.479Z,3.23
2023-05-17T07:27:26.971Z,3.73
2023-05-17T07:29:55.065Z,4.53
2023-05-17T07:32:23.075Z,4.80
2023-05-17T07:34:51.128Z,6.23
2023-05-17T07:37:21.037Z,4.70
2023-05-17T07:39:49.087Z,5.27
2023-05-17T07:42:17.496Z,5.60
2023-05-17T07:44:48.609Z,6.60
2023-05-17T07:47:16.770Z,6.80
2023-05-17T07:49:45.012Z,6.67
2023-05-17T07:52:13.495Z,6.47
2023-05-17T07:54:43.042Z,5.73
2023-05-17T07:57:11.214Z,5.57
2023-05-17T07:59:39.303Z,6.43
2023-05-17T08:02:08.107Z,5.70
2023-05-17T08:04:36.195Z,4.97
2023-05-17T08:07:04.393Z,4.63
2023-05-17T08:09:32.439Z,4.87
2023-05-17T08:12:01.948Z,4.60
2023-05-17T08:14:29.977Z,5.17
2023-05-17T08:16:58.024Z,4.23
2023-05-17T08:19:27.461Z,3.50
2023-05-17T08:21:56.218Z,4.00
2023-05-17T08:24:24.329Z,3.07
2023-05-17T08:26:54.334Z,4.03
2023-05-17T08:29:23.724Z,3.03
2023-05-17T08:31:52.636Z,4.20
2023-05-17T08:34:20.684Z,4.30
2023-05-17T08:36:49.061Z,4.27
2023-05-17T08:39:17.692Z,5.00
2023-05-17T08:41:47.725Z,3.47
2023-05-17T08:44:17.718Z,3.23
2023-05-17T08:46:53.877Z,3.20
2023-05-17T08:49:25.727Z,4.10
2023-05-17T08:51:55.677Z,3.10
2023-05-17T08:54:23.824Z,2.57
2023-05-17T08:56:59.521Z,2.60
2023-05-17T08:59:33.886Z,2.70
2023-05-17T09:02:04.098Z,2.73
2023-05-17T09:04:32.564Z,1.73
2023-05-17T09:07:00.685Z,1.90
2023-05-17T09:09:30.129Z,2.13
2023-05-17T09:11:58.379Z,1.60
2023-05-17T09:14:26.478Z,2.57
2023-05-17T09:16:58.419Z,2.23
2023-05-17T09:19:28.052Z,2.50
2023-05-17T09:21:56.936Z,2.60
2023-05-17T09:24:30.433Z,2.57
2023-05-17T09:27:03.580Z,2.53
2023-05-17T09:29:33.277Z,2.30
2023-05-17T09:32:13.831Z,2.07
2023-05-17T09:34:45.739Z,2.63
2023-05-17T09:37:15.426Z,2.53
2023-05-17T09:39:44.806Z,2.87
2023-05-17T09:42:13.130Z,3.27
2023-05-17T09:44:53.609Z,2.73
2023-05-17T09:47:26.089Z,2.80
2023-05-17T09:49:57.796Z,2.80
2023-05-17T09:52:26.994Z,2.70
2023-05-17T09:54:56.380Z,2.23
2023-05-17T09:57:27.386Z,2.37
2023-05-17T09:59:57.857Z,2.93
2023-05-17T10:02:29.654Z,2.83
2023-05-17T10:04:59.786Z,3.00
2023-05-17T10:07:28.273Z,2.57
2023-05-17T10:09:57.508Z,3.10
2023-05-17T10:12:29.547Z,2.73
2023-05-17T10:15:00.043Z,2.77
2023-05-17T10:17:30.029Z,2.77
2023-05-17T10:20:00.286Z,3.23
2023-05-17T10:22:29.214Z,3.90
2023-05-17T10:24:58.546Z,2.17
2023-05-17T10:27:27.829Z,3.00
2023-05-17T10:29:56.505Z,2.20
2023-05-17T10:32:27.173Z,3.30
2023-05-17T10:35:09.420Z,2.53
2023-05-17T10:37:42.240Z,3.60
2023-05-17T10:40:14.183Z,2.43
2023-05-17T10:42:46.183Z,3.23
2023-05-17T10:45:14.865Z,2.57
2023-05-17T10:47:44.032Z,2.70
2023-05-17T10:50:14.988Z,6.43
2023-05-17T10:52:49.427Z,3.57
2023-05-17T10:55:21.875Z,3.00
2023-05-17T10:58:15.932Z,2.70
2023-05-17T11:00:47.118Z,2.33
2023-05-17T11:03:17.986Z,3.53
2023-05-17T11:06:12.789Z,2.50
2023-05-17T11:09:09.011Z,2.53
2023-05-17T11:11:37.274Z,2.47
2023-05-17T11:14:06.473Z,3.40
2023-05-17T11:16:37.535Z,2.20
2023-05-17T11:19:10.512Z,3.03
2023-05-17T11:21:47.135Z,4.50
2023-05-17T11:24:27.984Z,2.43
2023-05-17T11:26:56.657Z,2.37
2023-05-17T11:29:30.910Z,3.37
2023-05-17T11:31:59.065Z,3.40
2023-05-17T11:34:28.690Z,2.70
2023-05-17T11:36:57.479Z,3.27
2023-05-17T11:39:27.188Z,2.50
2023-05-17T11:41:56.466Z,2.80
2023-05-17T11:44:26.975Z,2.50
2023-05-17T11:47:03.899Z,3.10
2023-05-17T11:49:36.111Z,2.80
2023-05-17T11:52:06.204Z,2.30
2023-05-17T11:54:38.728Z,2.60
2023-05-17T11:57:07.977Z,3.10
2023-05-17T11:59:40.121Z,2.67
2023-05-17T12:02:08.681Z,2.60
2023-05-17T12:04:38.760Z,2.27
2023-05-17T12:07:10.470Z,2.63
2023-05-17T12:09:40.499Z,2.90
2023-05-17T12:12:09.730Z,2.97
2023-05-17T12:14:38.121Z,3.40
2023-05-17T12:17:09.786Z,2.60
2023-05-17T12:19:38.096Z,2.10
2023-05-17T12:22:12.484Z,3.93
2023-05-17T12:24:43.373Z,2.60
2023-05-17T12:27:12.176Z,2.40
2023-05-17T12:29:40.673Z,2.40
2023-05-17T12:32:11.004Z,3.20
2023-05-17T12:34:39.422Z,2.37
2023-05-17T12:37:10.623Z,2.90
2023-05-17T12:39:39.255Z,2.70
2023-05-17T12:42:10.540Z,2.60
2023-05-17T12:44:38.947Z,2.00
2023-05-17T12:47:07.425Z,2.50
2023-05-17T12:49:39.996Z,1.63
2023-05-17T12:52:08.749Z,2.80
2023-05-17T12:54:36.896Z,2.57
2023-05-17T12:57:14.098Z,1.70
2023-05-17T12:59:49.982Z,2.50
2023-05-17T13:02:19.971Z,1.80
2023-05-17T13:04:48.214Z,1.90
2023-05-17T13:07:24.301Z,2.13
2023-05-17T13:09:52.679Z,2.00
2023-05-17T13:12:23.671Z,1.80
2023-05-17T13:14:54.735Z,1.93
2023-05-17T13:17:26.850Z,1.50
2023-05-17T13:19:57.354Z,1.47
2023-05-17T13:22:26.046Z,2.00
2023-05-17T13:24:54.177Z,1.10
2023-05-17T13:27:23.638Z,1.23
2023-05-17T13:29:51.808Z,1.93
2023-05-17T13:32:19.842Z,1.90
2023-05-17T13:34:47.882Z,2.10
2023-05-17T13:37:15.917Z,1.60
2023-05-17T13:39:44.073Z,1.37
2023-05-17T13:42:13.448Z,1.70
2023-05-17T13:44:42.873Z,1.60
2023-05-17T13:47:11.154Z,1.30
2023-05-17T13:49:39.269Z,1.63
2023-05-17T13:52:08.938Z,1.63
2023-05-17T13:54:37.911Z,1.80
2023-05-17T13:57:06.746Z,1.90
2023-05-17T13:59:35.010Z,1.97
2023-05-17T14:02:04.937Z,5.50
2023-05-17T14:04:33.470Z,1.90
2023-05-17T14:07:01.792Z,1.43
2023-05-17T14:09:32.914Z,1.30
2023-05-17T14:12:01.792Z,2.03
2023-05-17T14:14:30.800Z,1.40
2023-05-17T14:16:59.070Z,1.37
2023-05-17T14:19:29.715Z,1.60
2023-05-17T14:21:57.929Z,1.80
2023-05-17T14:24:26.226Z,1.30
2023-05-17T14:26:54.315Z,1.63
2023-05-17T14:29:22.354Z,1.50
2023-05-17T14:31:50.378Z,1.23
2023-05-17T14:34:18.589Z,1.33
2023-05-17T14:36:48.025Z,1.30
2023-05-17T14:39:16.387Z,2.17
2023-05-17T14:41:45.146Z,1.97
2023-05-17T14:44:13.303Z,1.60
2023-05-17T14:46:41.384Z,1.10
2023-05-17T14:49:09.565Z,1.10
2023-05-17T14:51:37.833Z,1.03
2023-05-17T14:54:08.361Z,1.40
2023-05-17T14:56:36.351Z,1.60
2023-05-17T14:59:05.054Z,1.30
2023-05-17T15:01:33.084Z,1.60
2023-05-17T15:04:02.228Z,1.27
2023-05-17T15:06:31.319Z,1.10
2023-05-17T15:08:59.957Z,1.63
2023-05-17T15:11:29.485Z,0.70
2023-05-17T15:13:57.522Z,1.63
2023-05-17T15:16:25.755Z,1.83
2023-05-17T15:18:55.508Z,1.07
2023-05-17T15:21:25.494Z,1.53
2023-05-17T15:23:53.618Z,2.53
2023-05-17T15:26:22.133Z,1.23
2023-05-17T15:28:51.762Z,0.90
2023-05-17T15:31:19.770Z,0.90
2023-05-17T15:33:47.889Z,1.30
2023-05-17T15:36:16.454Z,0.93
2023-05-17T15:38:44.593Z,1.10
2023-05-17T15:41:14.413Z,1.57
2023-05-17T15:43:43.177Z,1.10
2023-05-17T15:46:12.751Z,1.60
2023-05-17T15:48:41.131Z,1.40
2023-05-17T15:51:09.258Z,2.03
2023-05-17T15:53:37.336Z,0.97
2023-05-17T15:56:05.803Z,1.03
2023-05-17T15:58:36.116Z,1.13
2023-05-17T16:01:05.160Z,1.87
2023-05-17T16:03:35.037Z,1.20
2023-05-17T16:06:04.388Z,1.23
2023-05-17T16:08:32.604Z,2.10
2023-05-17T16:11:02.364Z,0.83
2023-05-17T16:13:31.113Z,1.23
2023-05-17T16:15:59.769Z,1.00
2023-05-17T16:18:27.896Z,1.30
2023-05-17T16:21:02.999Z,1.57
2023-05-17T16:23:31.328Z,0.97
2023-05-17T16:25:59.463Z,0.93
2023-05-17T16:28:27.674Z,1.23
2023-05-17T16:30:56.217Z,1.47
2023-05-17T16:33:24.470Z,1.73
2023-05-17T16:35:52.596Z,0.90
2023-05-17T16:38:22.318Z,2.03
2023-05-17T16:40:50.557Z,1.20
2023-05-17T16:43:18.566Z,1.10
2023-05-17T16:45:47.012Z,1.50
2023-05-17T16:48:15.787Z,1.17
2023-05-17T16:50:43.968Z,1.90
2023-05-17T16:53:12.199Z,1.07
2023-05-17T16:55:42.171Z,1.87
2023-05-17T16:58:10.373Z,2.30
2023-05-17T17:00:38.684Z,1.97
2023-05-17T17:03:09.276Z,2.97
2023-05-17T17:05:38.368Z,2.57
2023-05-17T17:08:06.780Z,2.10
2023-05-17T17:10:35.978Z,1.30
2023-05-17T17:13:05.448Z,1.10
2023-05-17T17:15:33.899Z,1.53
2023-05-17T17:18:02.043Z,2.03
2023-05-17T17:20:30.724Z,1.30
2023-05-17T17:22:58.981Z,1.47
2023-05-17T17:25:27.310Z,1.93
2023-05-17T17:27:55.373Z,1.60
2023-05-17T17:30:24.807Z,1.70
2023-05-17T17:32:54.146Z,1.23
2023-05-17T17:35:22.508Z,1.20
2023-05-17T17:37:50.650Z,1.70
2023-05-17T17:40:18.947Z,1.00
2023-05-17T17:42:47.331Z,1.90
2023-05-17T17:45:15.411Z,1.10
2023-05-17T17:47:44.923Z,1.10
2023-05-17T17:50:13.025Z,1.00
2023-05-17T17:52:41.109Z,0.60
2023-05-17T17:55:11.517Z,1.23
2023-05-17T17:57:39.884Z,1.00
2023-05-17T18:00:11.480Z,1.60
2023-05-17T18:02:40.546Z,1.07
2023-05-17T18:05:11.121Z,1.10
2023-05-17T18:07:39.553Z,0.97
2023-05-17T18:10:08.674Z,1.03
2023-05-17T18:12:36.819Z,1.57
2023-05-17T18:15:05.411Z,1.90
2023-05-17T18:17:33.715Z,1.27
2023-05-17T18:20:01.886Z,1.07
2023-05-17T18:22:31.593Z,1.60
2023-05-17T18:24:59.950Z,2.17
2023-05-17T18:27:28.060Z,3.10
2023-05-17T18:29:56.236Z,2.30
2023-05-17T18:32:24.454Z,1.53
2023-05-17T18:34:52.590Z,2.40
2023-05-17T18:37:20.688Z,1.47
2023-05-17T18:39:50.409Z,2.03
2023-05-17T18:42:19.566Z,1.00
2023-05-17T18:44:48.032Z,1.43
2023-05-17T18:47:16.302Z,1.40
2023-05-17T18:49:46.621Z,1.00
2023-05-17T18:52:14.930Z,1.27
2023-05-17T18:54:43.052Z,1.50
2023-05-17T18:57:14.200Z,1.47
2023-05-17T18:59:42.494Z,2.20
2023-05-17T19:02:10.574Z,1.67
2023-05-17T19:04:38.746Z,1.17
2023-05-17T19:07:06.788Z,1.50
2023-05-17T19:09:34.973Z,1.37
2023-05-17T19:12:03.158Z,1.60
2023-05-17T19:14:32.972Z,1.30
2023-05-17T19:17:01.074Z,1.27
2023-05-17T19:19:31.206Z,1.60
2023-05-17T19:22:00.679Z,1.63
2023-05-17T19:24:29.186Z,2.00
2023-05-17T19:26:57.273Z,1.37
2023-05-17T19:29:27.247Z,1.50
2023-05-17T19:31:57.804Z,1.10
2023-05-17T19:34:26.464Z,1.77
2023-05-17T19:36:54.530Z,1.90
2023-05-17T19:39:22.549Z,1.23
2023-05-17T19:41:50.912Z,2.10
2023-05-17T19:44:19.098Z,1.40
2023-05-17T19:46:47.229Z,1.30
2023-05-17T19:49:16.770Z,1.60
2023-05-17T19:51:46.134Z,1.17
2023-05-17T19:54:14.228Z,1.27
2023-05-17T19:56:42.339Z,1.67
2023-05-17T19:59:10.401Z,2.00
2023-05-17T20:01:38.562Z,2.33
2023-05-17T20:04:06.718Z,2.70
2023-05-17T20:06:36.181Z,2.70
2023-05-17T20:09:05.082Z,3.27
2023-05-17T20:11:33.289Z,2.20
2023-05-17T20:14:01.406Z,1.83
2023-05-17T20:16:30.965Z,1.83
2023-05-17T20:19:00.807Z,1.30
2023-05-17T20:21:29.083Z,1.70
2023-05-17T20:24:01.521Z,1.83
2023-05-17T20:26:32.134Z,1.43
2023-05-17T20:29:00.570Z,1.40
2023-05-17T20:31:29.548Z,1.63
2023-05-17T20:33:57.911Z,1.33
2023-05-17T20:36:26.462Z,1.47
2023-05-17T20:38:54.810Z,2.10
2023-05-17T20:41:24.465Z,1.73
2023-05-17T20:43:52.652Z,1.33
2023-05-17T20:46:20.855Z,1.20
2023-05-17T20:48:49.909Z,1.30
2023-05-17T20:51:19.631Z,1.23
2023-05-17T20:53:47.989Z,1.50
2023-05-17T20:56:16.199Z,1.00
2023-05-17T20:58:45.762Z,1.30
2023-05-17T21:01:14.796Z,1.43
2023-05-17T21:03:43.376Z,1.23
2023-05-17T21:06:11.788Z,1.27
2023-05-17T21:08:40.192Z,1.00
2023-05-17T21:11:08.245Z,1.57
2023-05-17T21:13:36.293Z,1.60
2023-05-17T21:16:06.229Z,1.17
2023-05-17T21:18:34.545Z,1.10
2023-05-17T21:21:02.763Z,1.17
2023-05-17T21:23:31.300Z,1.47
2023-05-17T21:25:59.633Z,1.50
2023-05-17T21:28:29.927Z,0.93
2023-05-17T21:30:58.127Z,1.47
2023-05-17T21:33:28.467Z,1.97
2023-05-17T21:35:56.897Z,1.70
2023-05-17T21:38:25.132Z,1.50
2023-05-17T21:40:53.328Z,1.37
2023-05-17T21:43:21.533Z,1.60
2023-05-17T21:45:49.685Z,1.80
2023-05-17T21:48:17.784Z,1.40
2023-05-17T21:50:47.244Z,1.40
2023-05-17T21:53:15.296Z,2.53
2023-05-17T21:58:16.341Z,1.47
2023-05-17T22:00:44.450Z,1.53
2023-05-17T22:03:12.677Z,1.23
2023-05-17T22:05:40.973Z,1.60
2023-05-17T22:08:10.433Z,1.77
2023-05-17T22:10:40.508Z,2.07
2023-05-17T22:13:12.047Z,1.30
2023-05-17T22:15:41.625Z,1.13
2023-05-17T22:18:12.151Z,1.13
2023-05-17T22:20:43.478Z,1.47
2023-05-17T22:23:12.974Z,1.57
2023-05-17T22:25:41.027Z,1.57
2023-05-17T22:28:09.145Z,1.83
2023-05-17T22:30:37.304Z,1.40
2023-05-17T22:33:06.442Z,1.07
2023-05-17T22:35:34.574Z,1.48
2023-05-17T22:38:02.755Z,1.60
2023-05-17T22:40:32.649Z,1.50
2023-05-17T22:43:01.400Z,1.70
2023-05-17T22:45:33.400Z,1.73
2023-05-17T22:48:03.861Z,1.43
2023-05-17T22:50:33.536Z,2.10
2023-05-17T22:53:02.065Z,1.83
2023-05-17T22:55:30.519Z,1.50
2023-05-17T22:58:00.145Z,1.70
2023-05-17T23:00:28.270Z,1.50
2023-05-17T23:02:56.432Z,1.40
2023-05-17T23:05:24.803Z,1.07
2023-05-17T23:07:53.464Z,1.17
2023-05-17T23:10:21.767Z,1.60
2023-05-17T23:12:52.073Z,1.80
2023-05-17T23:15:21.927Z,1.60
2023-05-17T23:17:50.986Z,1.15
2023-05-17T23:20:19.970Z,1.45
2023-05-17T23:22:48.574Z,1.38
2023-05-17T23:25:16.818Z,1.50
2023-05-17T23:27:45.323Z,1.50
2023-05-17T23:30:13.621Z,1.25
2023-05-17T23:32:46.715Z,1.70
2023-05-17T23:35:14.965Z,1.70
2023-05-17T23:37:43.579Z,1.55
2023-05-17T23:40:14.691Z,1.40
2023-05-17T23:42:43.185Z,1.58
2023-05-17T23:45:11.543Z,1.33
2023-05-17T23:47:40.896Z,1.75
2023-05-17T23:50:11.936Z,1.98
2023-05-17T23:52:40.353Z,1.30
2023-05-17T23:55:09.215Z,1.20
2023-05-17T23:57:37.841Z,1.67
